createdAt,value
2022-12-01T00:01:53.634Z,98815.69
2022-12-01T00:04:22.684Z,98800.63
2022-12-01T00:06:51.834Z,98807.69
2022-12-01T00:09:42.512Z,98796.22
2022-12-01T00:12:13.944Z,98803.50
2022-12-01T00:14:43.091Z,98795.41
2022-12-01T00:17:18.108Z,98799.34
2022-12-01T00:19:47.609Z,98793.78
2022-12-01T00:22:17.340Z,98794.59
2022-12-01T00:24:47.619Z,98805.00
2022-12-01T00:27:18.125Z,98799.44
2022-12-01T00:29:48.408Z,98793.91
2022-12-01T00:32:17.932Z,98796.41
2022-12-01T00:34:47.007Z,98798.47
2022-12-01T00:37:16.099Z,98806.09
2022-12-01T00:39:45.165Z,98807.88
2022-12-01T00:42:17.227Z,98802.75
2022-12-01T00:44:47.462Z,98808.88
2022-12-01T00:47:17.041Z,98806.38
2022-12-01T00:49:46.729Z,98806.09
2022-12-01T00:52:18.476Z,98806.63
2022-12-01T00:54:47.520Z,98811.75
2022-12-01T00:57:17.987Z,98814.72
2022-12-01T00:59:48.489Z,98816.13
2022-12-01T01:02:17.737Z,98804.28
2022-12-01T01:04:46.823Z,98808.44
2022-12-01T01:07:15.891Z,98821.88
2022-12-01T01:09:45.043Z,98806.09
2022-12-01T01:12:14.186Z,98823.66
2022-12-01T01:14:44.758Z,98818.28
2022-12-01T01:17:13.950Z,98809.66
2022-12-01T01:19:42.955Z,98820.59
2022-12-01T01:22:12.200Z,98817.94
2022-12-01T01:24:42.302Z,98815.94
2022-12-01T01:27:11.590Z,98811.09
2022-12-01T01:29:40.585Z,98804.63
2022-12-01T01:32:11.407Z,98811.91
2022-12-01T01:34:40.466Z,98807.41
2022-12-01T01:37:09.648Z,98806.97
2022-12-01T01:39:38.744Z,98808.25
2022-12-01T01:42:07.917Z,98805.19
2022-12-01T01:44:54.837Z,98802.16
2022-12-01T01:47:29.501Z,98800.69
2022-12-01T01:50:09.732Z,98803.19
2022-12-01T01:52:44.302Z,98804.63
2022-12-01T01:55:14.669Z,98792.63
2022-12-01T01:57:45.363Z,98800.34
2022-12-01T02:00:19.043Z,98803.13
2022-12-01T02:02:51.759Z,98799.44
2022-12-01T02:05:24.745Z,98800.25
2022-12-01T02:07:57.330Z,98801.59
2022-12-01T02:10:46.540Z,98801.75
2022-12-01T02:13:27.006Z,98800.34
2022-12-01T02:16:09.593Z,98786.72
2022-12-01T02:18:53.201Z,98794.44
2022-12-01T02:21:44.236Z,98786.53
2022-12-01T02:25:10.703Z,98788.25
2022-12-01T02:28:20.120Z,98788.25
2022-12-01T02:30:55.063Z,98780.25
2022-12-01T02:33:30.544Z,98793.97
2022-12-01T02:36:12.764Z,98794.78
2022-12-01T02:38:49.355Z,98796.94
2022-12-01T02:41:26.609Z,98794.69
2022-12-01T02:44:06.667Z,98791.66
2022-12-01T02:46:41.854Z,98794.22
2022-12-01T02:49:17.187Z,98790.72
2022-12-01T02:51:49.707Z,98789.94
2022-12-01T02:54:21.032Z,98793.44
2022-12-01T02:56:53.790Z,98793.19
2022-12-01T02:59:23.042Z,98787.44
2022-12-01T03:02:12.828Z,98782.97
2022-12-01T03:05:11.161Z,98782.38
2022-12-01T03:07:53.030Z,98776.47
2022-12-01T03:10:30.680Z,98781.34
2022-12-01T03:13:13.362Z,98774.88
2022-12-01T03:15:55.625Z,98775.69
2022-12-01T03:18:37.239Z,98781.59
2022-12-01T03:21:12.185Z,98782.06
2022-12-01T03:23:44.927Z,98780.22
2022-12-01T03:26:20.044Z,98783.84
2022-12-01T03:28:53.458Z,98781.50
2022-12-01T03:31:28.173Z,98785.97
2022-12-01T03:34:05.473Z,98783.66
2022-12-01T03:36:38.077Z,98797.47
2022-12-01T03:39:13.064Z,98783.75
2022-12-01T03:41:51.248Z,98784.38
2022-12-01T03:44:23.632Z,98782.59
2022-12-01T03:46:58.585Z,98788.16
2022-12-01T03:49:30.844Z,98785.91
2022-12-01T03:52:15.319Z,98778.56
2022-12-01T03:54:54.871Z,98771.47
2022-12-01T03:57:35.949Z,98774.69
2022-12-01T04:00:17.064Z,98772.38
2022-12-01T04:02:46.415Z,98769.44
2022-12-01T04:05:21.147Z,98773.63
2022-12-01T04:07:54.671Z,98777.59
2022-12-01T04:10:24.091Z,98775.50
2022-12-01T04:13:02.553Z,98777.38
2022-12-01T04:15:31.983Z,98779.91
2022-12-01T04:18:11.372Z,98777.59
2022-12-01T04:20:43.244Z,98779.19
2022-12-01T04:23:32.378Z,98777.59
2022-12-01T04:26:12.605Z,98778.38
2022-12-01T04:28:44.704Z,98769.97
2022-12-01T04:31:16.137Z,98774.34
2022-12-01T04:33:45.417Z,98779.00
2022-12-01T04:36:15.984Z,98776.59
2022-12-01T04:38:45.252Z,98776.69
2022-12-01T04:41:15.615Z,98777.50
2022-12-01T04:43:44.759Z,98780.34
2022-12-01T04:46:14.035Z,98778.03
2022-12-01T04:48:43.623Z,98782.06
2022-12-01T04:51:12.618Z,98780.09
2022-12-01T04:53:43.345Z,98780.09
2022-12-01T04:56:12.546Z,98776.88
2022-12-01T04:58:42.260Z,98778.47
2022-12-01T05:01:14.810Z,98773.63
2022-12-01T05:03:49.374Z,98768.06
2022-12-01T05:06:20.853Z,98773.28
2022-12-01T05:08:52.571Z,98787.88
2022-12-01T05:11:21.648Z,98781.06
2022-12-01T05:13:50.893Z,98779.47
2022-12-01T05:16:22.374Z,98779.91
2022-12-01T05:19:13.858Z,98783.84
2022-12-01T05:21:43.280Z,98778.94
2022-12-01T05:24:16.099Z,98784.50
2022-12-01T05:26:45.848Z,98781.25
2022-12-01T05:29:15.369Z,98779.28
2022-12-01T05:31:46.013Z,98778.84
2022-12-01T05:34:16.996Z,98776.78
2022-12-01T05:36:46.329Z,98769.06
2022-12-01T05:39:16.992Z,98775.50
2022-12-01T05:41:46.034Z,98778.28
2022-12-01T05:44:15.083Z,98776.22
2022-12-01T05:46:44.051Z,98782.44
2022-12-01T05:49:13.200Z,98781.97
2022-12-01T05:51:43.652Z,98783.13
2022-12-01T05:54:12.853Z,98781.97
2022-12-01T05:56:43.544Z,98779.91
2022-12-01T05:59:12.557Z,98779.00
2022-12-01T06:01:41.595Z,98778.28
2022-12-01T06:04:10.736Z,98779.00
2022-12-01T06:06:39.785Z,98791.22
2022-12-01T06:09:09.436Z,98789.66
2022-12-01T06:11:38.631Z,98795.16
2022-12-01T06:14:09.298Z,98797.94
2022-12-01T06:16:38.364Z,98796.78
2022-12-01T06:19:07.541Z,98796.78
2022-12-01T06:21:36.580Z,98800.06
2022-12-01T06:24:05.943Z,98804.13
2022-12-01T06:26:35.077Z,98807.91
2022-12-01T06:29:04.124Z,98811.84
2022-12-01T06:31:34.578Z,98814.63
2022-12-01T06:34:03.733Z,98815.06
2022-12-01T06:36:33.537Z,98819.97
2022-12-01T06:39:02.528Z,98821.50
2022-12-01T06:41:32.616Z,98819.19
2022-12-01T06:44:02.672Z,98828.69
2022-12-01T06:46:32.024Z,98827.50
2022-12-01T06:49:03.380Z,98827.50
2022-12-01T06:51:34.325Z,98828.69
2022-12-01T06:54:05.585Z,98826.34
2022-12-01T06:56:34.892Z,98834.69
2022-12-01T06:59:04.342Z,98831.91
2022-12-01T07:01:33.780Z,98829.59
2022-12-01T07:04:04.520Z,98842.78
2022-12-01T07:06:33.989Z,98837.66
2022-12-01T07:09:03.377Z,98839.53
2022-12-01T07:11:32.550Z,98841.34
2022-12-01T07:14:03.807Z,98843.22
2022-12-01T07:16:32.825Z,98845.00
2022-12-01T07:19:03.984Z,98843.03
2022-12-01T07:21:32.955Z,98844.84
2022-12-01T07:24:02.339Z,98850.59
2022-12-01T07:26:31.314Z,98852.56
2022-12-01T07:29:04.823Z,98849.31
2022-12-01T07:31:34.925Z,98859.53
2022-12-01T07:34:12.718Z,98858.31
2022-12-01T07:36:41.771Z,98863.56
2022-12-01T07:39:10.879Z,98859.72
2022-12-01T07:41:39.924Z,98859.25
2022-12-01T07:44:11.651Z,98865.47
2022-12-01T07:46:40.706Z,98869.25
2022-12-01T07:49:14.843Z,98859.09
2022-12-01T07:51:43.873Z,98858.66
2022-12-01T07:54:14.339Z,98865.56
2022-12-01T07:56:43.578Z,98865.28
2022-12-01T07:59:12.842Z,98859.72
2022-12-01T08:01:44.659Z,98856.50
2022-12-01T08:04:15.787Z,98870.16
2022-12-01T08:06:44.816Z,98863.69
2022-12-01T08:09:13.950Z,98864.59
2022-12-01T08:11:43.059Z,98876.41
2022-12-01T08:14:12.130Z,98864.22
2022-12-01T08:16:41.228Z,98871.75
2022-12-01T08:19:12.076Z,98861.41
2022-12-01T08:21:42.529Z,98865.81
2022-12-01T08:24:12.734Z,98873.91
2022-12-01T08:26:41.917Z,98865.47
2022-12-01T08:29:14.603Z,98874.44
2022-12-01T08:31:46.165Z,98862.59
2022-12-01T08:34:15.208Z,98870.38
2022-12-01T08:36:45.683Z,98874.44
2022-12-01T08:39:14.978Z,98873.72
2022-12-01T08:41:44.329Z,98872.28
2022-12-01T08:44:13.690Z,98874.63
2022-12-01T08:46:42.911Z,98875.50
2022-12-01T08:49:12.006Z,98878.66
2022-12-01T08:51:41.028Z,98877.94
2022-12-01T08:54:13.310Z,98882.75
2022-12-01T08:56:45.844Z,98887.50
2022-12-01T08:59:14.939Z,98886.06
2022-12-01T09:01:53.373Z,98875.84
2022-12-01T09:04:24.837Z,98881.84
2022-12-01T09:06:56.580Z,98888.81
2022-12-01T09:09:29.715Z,98885.09
2022-12-01T09:11:58.731Z,98887.88
2022-12-01T09:14:28.233Z,98891.38
2022-12-01T09:16:57.251Z,98899.00
2022-12-01T09:19:28.603Z,98893.88
2022-12-01T09:21:57.812Z,98903.84
2022-12-01T09:24:28.889Z,98899.34
2022-12-01T09:26:58.909Z,98897.97
2022-12-01T09:29:28.023Z,98896.34
2022-12-01T09:31:58.560Z,98896.00
2022-12-01T09:34:28.990Z,98900.31
2022-12-01T09:36:58.793Z,98895.38
2022-12-01T09:39:29.873Z,98892.13
2022-12-01T09:42:09.126Z,98889.63
2022-12-01T09:44:43.924Z,98885.34
2022-12-01T09:47:22.744Z,98890.91
2022-12-01T09:49:58.690Z,98886.53
2022-12-01T09:52:34.636Z,98874.22
2022-12-01T09:55:08.341Z,98876.72
2022-12-01T09:57:40.497Z,98882.38
2022-12-01T10:00:18.169Z,98877.63
2022-12-01T10:02:55.101Z,98875.78
2022-12-01T10:05:36.600Z,98878.66
2022-12-01T10:08:09.290Z,98871.66
2022-12-01T10:10:43.928Z,98876.03
2022-12-01T10:13:19.468Z,98870.91
2022-12-01T10:16:00.843Z,98870.84
2022-12-01T10:18:45.832Z,98874.00
2022-12-01T10:21:27.127Z,98866.63
2022-12-01T10:24:13.979Z,98866.72
2022-12-01T10:26:54.834Z,98865.91
2022-12-01T10:29:33.171Z,98855.66
2022-12-01T10:32:11.288Z,98853.50
2022-12-01T10:34:43.598Z,98859.06
2022-12-01T10:37:18.161Z,98846.75
2022-12-01T10:39:50.057Z,98846.75
2022-12-01T10:42:28.197Z,98852.72
2022-12-01T10:45:01.013Z,98846.44
2022-12-01T10:47:31.468Z,98846.38
2022-12-01T10:50:00.537Z,98839.38
2022-12-01T10:52:37.152Z,98837.94
2022-12-01T10:55:27.760Z,98835.28
2022-12-01T10:58:06.151Z,98832.06
2022-12-01T11:00:59.161Z,98836.00
2022-12-01T11:03:33.404Z,98826.94
2022-12-01T11:06:06.410Z,98826.78
2022-12-01T11:08:41.956Z,98831.47
2022-12-01T11:11:31.494Z,98824.28
2022-12-01T11:14:07.215Z,98825.59
2022-12-01T11:16:41.556Z,98829.28
2022-12-01T11:19:29.111Z,98827.78
2022-12-01T11:22:00.944Z,98820.16
2022-12-01T11:24:43.614Z,98821.88
2022-12-01T11:27:21.192Z,98810.00
2022-12-01T11:29:55.923Z,98822.69
2022-12-01T11:32:27.415Z,98823.56
2022-12-01T11:35:00.628Z,98824.28
2022-12-01T11:37:37.764Z,98824.44
2022-12-01T11:40:19.877Z,98821.22
2022-12-01T11:42:52.226Z,98819.75
2022-12-01T11:45:32.362Z,98813.63
2022-12-01T11:48:06.148Z,98822.25
2022-12-01T11:50:38.093Z,98815.66
2022-12-01T11:53:28.716Z,98819.91
2022-12-01T11:56:20.822Z,98810.31
2022-12-01T11:58:58.668Z,98817.13
2022-12-01T12:01:41.701Z,98815.69
2022-12-01T12:04:27.770Z,98813.28
2022-12-01T12:07:07.754Z,98817.13
2022-12-01T12:09:52.084Z,98813.63
2022-12-01T12:12:39.863Z,98808.78
2022-12-01T12:15:25.539Z,98807.31
2022-12-01T12:18:17.343Z,98803.19
2022-12-01T12:21:04.600Z,98806.44
2022-12-01T12:24:04.557Z,98798.06
2022-12-01T12:26:41.596Z,98800.13
2022-12-01T12:29:29.848Z,98801.66
2022-12-01T12:32:19.163Z,98803.19
2022-12-01T12:35:03.662Z,98801.16
2022-12-01T12:37:46.482Z,98799.00
2022-12-01T12:40:36.263Z,98799.81
2022-12-01T12:43:22.263Z,98796.66
2022-12-01T12:46:14.168Z,98797.91
2022-12-01T12:49:21.192Z,98791.47
2022-12-01T12:52:05.070Z,98791.78
2022-12-01T12:54:48.225Z,98779.03
2022-12-01T12:57:27.474Z,98777.09
2022-12-01T13:00:01.316Z,98784.72
2022-12-01T13:02:39.337Z,98780.84
2022-12-01T13:05:16.880Z,98787.22
2022-12-01T13:07:56.558Z,98798.34
2022-12-01T13:10:38.217Z,98792.78
2022-12-01T13:13:25.460Z,98793.88
2022-12-01T13:15:57.855Z,98797.72
2022-12-01T13:18:35.234Z,98790.00
2022-12-01T13:21:05.615Z,98785.81
2022-12-01T13:23:39.402Z,98778.13
2022-12-01T13:26:11.499Z,98780.56
2022-12-01T13:28:48.934Z,98783.69
2022-12-01T13:31:20.194Z,98785.31
2022-12-01T13:33:59.217Z,98787.22
2022-12-01T13:39:23.374Z,98797.19
2022-12-01T13:42:03.253Z,98787.66
2022-12-01T13:44:40.359Z,98786.59
2022-12-01T13:47:39.672Z,98786.28
2022-12-01T13:50:56.638Z,98785.22
2022-12-01T13:53:32.211Z,98780.72
2022-12-01T13:56:39.763Z,98788.88
2022-12-01T14:00:17.956Z,98783.69
2022-12-01T14:02:47.172Z,98783.16
2022-12-01T14:05:47.094Z,98787.41
2022-12-01T14:08:23.491Z,98780.31
2022-12-01T14:10:57.838Z,98779.38
2022-12-01T14:13:29.873Z,98778.59
2022-12-01T14:16:08.241Z,98767.03
2022-12-01T14:18:43.990Z,98771.50
2022-12-01T14:21:15.759Z,98768.44
2022-12-01T14:24:05.057Z,98769.97
2022-12-01T14:26:45.019Z,98767.44
2022-12-01T14:29:35.137Z,98773.03
2022-12-01T14:32:25.523Z,98763.31
2022-12-01T14:35:02.499Z,98772.75
2022-12-01T14:37:45.317Z,98771.47
2022-12-01T14:40:22.523Z,98770.31
2022-12-01T14:43:14.136Z,98770.75
2022-12-01T14:45:58.300Z,98775.78
2022-12-01T14:48:36.041Z,98771.63
2022-12-01T14:51:20.675Z,98784.34
2022-12-01T14:53:53.500Z,98774.84
2022-12-01T14:56:25.476Z,98777.31
2022-12-01T14:59:22.360Z,98775.88
2022-12-01T15:01:57.475Z,98775.00
2022-12-01T15:04:28.167Z,98774.84
2022-12-01T15:06:58.855Z,98763.53
2022-12-01T15:09:36.022Z,98770.44
2022-12-01T15:12:08.084Z,98774.84
2022-12-01T15:14:40.535Z,98768.13
2022-12-01T15:17:32.207Z,98776.28
2022-12-01T15:20:01.815Z,98775.13
2022-12-01T15:22:35.145Z,98779.97
2022-12-01T15:25:14.510Z,98772.78
2022-12-01T15:27:45.942Z,98770.28
2022-12-01T15:30:17.119Z,98776.09
2022-12-01T15:32:49.073Z,98777.72
2022-12-01T15:35:23.993Z,98765.88
2022-12-01T15:37:53.798Z,98776.03
2022-12-01T15:41:06.318Z,98760.31
2022-12-01T15:43:20.178Z,98771.69
2022-12-01T15:45:57.745Z,98766.91
2022-12-01T15:48:31.927Z,98764.97
2022-12-01T15:51:07.691Z,98765.69
2022-12-01T15:53:40.151Z,98768.53
2022-12-01T15:56:11.583Z,98767.38
2022-12-01T15:58:45.433Z,98761.88
2022-12-01T16:01:17.457Z,98767.94
2022-12-01T16:03:58.980Z,98768.03
2022-12-01T16:06:31.576Z,98770.31
2022-12-01T16:09:03.522Z,98776.28
2022-12-01T16:11:33.059Z,98777.38
2022-12-01T16:14:06.194Z,98779.91
2022-12-01T16:16:42.724Z,98768.66
2022-12-01T16:19:30.303Z,98777.28
2022-12-01T16:22:15.094Z,98781.13
2022-12-01T16:24:50.759Z,98781.22
2022-12-01T16:27:23.819Z,98778.03
2022-12-01T16:29:55.825Z,98785.78
2022-12-01T16:32:33.723Z,98783.28
2022-12-01T16:35:04.490Z,98779.38
2022-12-01T16:37:33.754Z,98790.06
2022-12-01T16:40:02.713Z,98791.53
2022-12-01T16:42:31.739Z,98785.63
2022-12-01T16:45:00.733Z,98782.03
2022-12-01T16:47:33.297Z,98788.63
2022-12-01T16:50:03.774Z,98794.72
2022-12-01T16:52:48.260Z,98794.50
2022-12-01T16:55:35.176Z,98792.00
2022-12-01T16:58:04.210Z,98795.84
2022-12-01T17:00:33.680Z,98798.25
2022-12-01T17:03:02.943Z,98806.97
2022-12-01T17:05:34.291Z,98802.41
2022-12-01T17:08:03.409Z,98800.53
2022-12-01T17:10:32.776Z,98806.81
2022-12-01T17:13:01.856Z,98802.78
2022-12-01T17:15:30.961Z,98805.34
2022-12-01T17:18:00.459Z,98805.09
2022-12-01T17:20:29.572Z,98803.03
2022-12-01T17:23:00.321Z,98798.91
2022-12-01T17:25:30.553Z,98802.16
2022-12-01T17:28:00.354Z,98806.09
2022-12-01T17:30:29.458Z,98801.25
2022-12-01T17:32:59.873Z,98805.66
2022-12-01T17:35:28.946Z,98793.91
2022-12-01T17:38:02.389Z,98800.00
2022-12-01T17:40:31.648Z,98801.97
2022-12-01T17:43:02.647Z,98798.75
2022-12-01T17:45:34.005Z,98803.50
2022-12-01T17:48:03.104Z,98801.06
2022-12-01T17:50:32.268Z,98797.94
2022-12-01T17:53:02.849Z,98803.59
2022-12-01T17:55:31.854Z,98799.19
2022-12-01T17:58:00.926Z,98801.50
2022-12-01T18:00:29.978Z,98806.88
2022-12-01T18:03:00.166Z,98803.13
2022-12-01T18:05:30.339Z,98794.44
2022-12-01T18:08:00.055Z,98793.97
2022-12-01T18:10:30.676Z,98788.75
2022-12-01T18:13:00.957Z,98796.59
2022-12-01T18:15:34.644Z,98792.91
2022-12-01T18:18:04.011Z,98788.25
2022-12-01T18:20:33.460Z,98795.31
2022-12-01T18:23:02.682Z,98791.47
2022-12-01T18:25:35.065Z,98796.03
2022-12-01T18:28:04.799Z,98806.09
2022-12-01T18:30:38.919Z,98795.25
2022-12-01T18:33:16.717Z,98799.44
2022-12-01T18:35:48.096Z,98797.13
2022-12-01T18:38:17.079Z,98801.25
2022-12-01T18:40:47.549Z,98797.94
2022-12-01T18:43:28.899Z,98806.44
2022-12-01T18:45:58.904Z,98801.06
2022-12-01T18:48:28.108Z,98798.56
2022-12-01T18:50:59.567Z,98796.84
2022-12-01T18:53:29.011Z,98800.25
2022-12-01T18:56:03.719Z,98790.31
2022-12-01T18:58:34.314Z,98799.56
2022-12-01T19:01:04.969Z,98792.66
2022-12-01T19:03:34.514Z,98794.97
2022-12-01T19:06:07.493Z,98790.94
2022-12-01T19:08:36.639Z,98794.78
2022-12-01T19:11:07.807Z,98793.44
2022-12-01T19:13:37.606Z,98796.13
2022-12-01T19:16:08.387Z,98804.00
2022-12-01T19:18:38.600Z,98798.47
2022-12-01T19:21:10.460Z,98801.34
2022-12-01T19:23:40.037Z,98798.34
2022-12-01T19:26:14.525Z,98802.19
2022-12-01T19:28:45.794Z,98807.38
2022-12-01T19:31:19.860Z,98800.41
2022-12-01T19:33:50.677Z,98798.69
2022-12-01T19:36:23.664Z,98800.81
2022-12-01T19:38:54.653Z,98798.56
2022-12-01T19:41:31.586Z,98795.03
2022-12-01T19:44:03.199Z,98797.69
2022-12-01T19:46:32.959Z,98788.72
2022-12-01T19:49:03.655Z,98795.66
2022-12-01T19:51:36.597Z,98795.91
2022-12-01T19:54:14.182Z,98801.44
2022-12-01T19:56:47.049Z,98796.06
2022-12-01T19:59:16.844Z,98789.81
2022-12-01T20:01:46.094Z,98793.06
2022-12-01T20:04:15.278Z,98793.06
2022-12-01T20:06:45.606Z,98795.78
2022-12-01T20:09:15.944Z,98796.84
2022-12-01T20:11:46.814Z,98800.44
2022-12-01T20:14:19.014Z,98799.63
2022-12-01T20:16:49.393Z,98802.69
2022-12-01T20:19:18.770Z,98802.56
2022-12-01T20:21:47.983Z,98800.81
2022-12-01T20:24:20.297Z,98798.50
2022-12-01T20:26:53.298Z,98799.31
2022-12-01T20:29:25.490Z,98807.19
2022-12-01T20:31:57.754Z,98798.50
2022-12-01T20:34:29.702Z,98800.31
2022-12-01T20:37:02.781Z,98807.19
2022-12-01T20:39:34.867Z,98805.59
2022-12-01T20:42:06.600Z,98808.19
2022-12-01T20:44:36.624Z,98802.53
2022-12-01T20:47:06.283Z,98804.16
2022-12-01T20:49:35.731Z,98807.28
2022-12-01T20:52:05.192Z,98797.59
2022-12-01T20:54:35.269Z,98800.81
2022-12-01T20:57:06.839Z,98798.38
2022-12-01T20:59:36.456Z,98799.19
2022-12-01T21:02:05.803Z,98798.03
2022-12-01T21:04:35.054Z,98801.72
2022-12-01T21:07:04.283Z,98798.41
2022-12-01T21:09:34.371Z,98804.16
2022-12-01T21:12:21.987Z,98800.44
2022-12-01T21:15:03.656Z,98796.03
2022-12-01T21:17:36.651Z,98799.06
2022-12-01T21:20:21.458Z,98791.78
2022-12-01T21:22:51.688Z,98802.56
2022-12-01T21:25:24.333Z,98796.53
2022-12-01T21:27:57.068Z,98791.63
2022-12-01T21:30:29.826Z,98792.09
2022-12-01T21:33:19.063Z,98788.16
2022-12-01T21:35:52.728Z,98792.09
2022-12-01T21:38:22.330Z,98786.91
2022-12-01T21:40:51.566Z,98791.38
2022-12-01T21:43:24.537Z,98790.84
2022-12-01T21:45:59.731Z,98791.66
2022-12-01T21:48:36.239Z,98794.06
2022-12-01T21:51:17.483Z,98792.34
2022-12-01T21:53:47.864Z,98781.88
2022-12-01T21:56:23.747Z,98792.09
2022-12-01T21:58:53.706Z,98792.81
2022-12-01T22:01:29.017Z,98783.47
2022-12-01T22:04:02.721Z,98786.34
2022-12-01T22:06:37.013Z,98791.19
2022-12-01T22:09:16.041Z,98789.78
2022-12-01T22:11:48.468Z,98785.81
2022-12-01T22:14:20.890Z,98784.66
2022-12-01T22:16:57.306Z,98786.72
2022-12-01T22:19:32.256Z,98777.19
2022-12-01T22:22:13.071Z,98783.22
2022-12-01T22:24:46.859Z,98786.91
2022-12-01T22:27:32.468Z,98784.31
2022-12-01T22:30:11.886Z,98775.06
2022-12-01T22:32:53.814Z,98774.25
2022-12-01T22:35:34.850Z,98773.91
2022-12-01T22:38:31.950Z,98778.09
2022-12-01T22:41:05.771Z,98766.09
2022-12-01T22:43:48.158Z,98770.66
2022-12-01T22:46:27.430Z,98772.03
2022-12-01T22:49:00.297Z,98765.56
2022-12-01T22:51:40.751Z,98764.31
2022-12-01T22:54:36.235Z,98750.75
2022-12-01T22:57:24.835Z,98748.16
2022-12-01T22:59:54.624Z,98746.00
2022-12-01T23:02:26.250Z,98751.84
2022-12-01T23:05:01.950Z,98751.13
2022-12-01T23:07:35.098Z,98741.91
2022-12-01T23:10:12.097Z,98730.78
2022-12-01T23:12:43.044Z,98733.81
2022-12-01T23:15:26.770Z,98732.22
2022-12-01T23:17:56.160Z,98729.69
2022-12-01T23:20:33.437Z,98728.72
2022-12-01T23:23:05.499Z,98728.97
2022-12-01T23:25:36.598Z,98732.22
2022-12-01T23:28:08.572Z,98737.50
2022-12-01T23:30:41.587Z,98741.00
2022-12-01T23:33:18.813Z,98737.22
2022-12-01T23:35:57.499Z,98735.97
2022-12-01T23:38:32.266Z,98735.97
2022-12-01T23:41:05.619Z,98743.03
2022-12-01T23:43:42.688Z,98736.63
2022-12-01T23:46:15.793Z,98742.78
2022-12-01T23:48:48.157Z,98735.53
2022-12-01T23:51:24.338Z,98735.53
2022-12-01T23:53:56.059Z,98733.91
2022-12-01T23:56:29.408Z,98728.97
2022-12-01T23:59:02.065Z,98726.63
